Time,TemperatureF,DewpointF,PressureIn,WindDirection,WindDirectionDegrees,WindSpeedMPH,WindSpeedGustMPH,Humidity,HourlyPrecipIn,Conditions,Clouds,dailyrainin,SolarRadiationWatts/m^2,SoftwareType,DateUTC
2013-05-22 00:01:00,65.0,62.0,29.77,NNW,348,0.0,0.0,90,0.00,RA,OVC,0.00,0.0,WeatherDisplay:10.37,2013-05-22 04:01:00,
2013-05-22 00:06:00,65.0,62.3,29.77,NNW,348,0.0,0.0,91,0.00,RA,OVC,0.00,0.0,WeatherDisplay:10.37,2013-05-22 04:06:00,
2013-05-22 00:11:00,65.0,62.3,29.77,NNW,348,0.0,0.0,91,0.00,CLR,OVC,0.00,0.0,WeatherDisplay:10.37,2013-05-22 04:11:00,
2013-05-22 00:16:00,64.9,62.2,29.77,NNW,348,0.0,0.0,91,0.00,CLR,OVC,0.00,0.0,WeatherDisplay:10.37,2013-05-22 04:16:00,
2013-05-22 00:21:00,64.9,62.2,29.77,NNW,348,0.0,0.0,91,0.00,BKN,OVC,0.00,0.0,WeatherDisplay:10.37,2013-05-22 04:21:00,
2013-05-22 00:26:00,64.9,62.2,29.77,NNW,348,0.0,0.0,91,0.00,BKN,OVC,0.00,0.0,WeatherDisplay:10.37,2013-05-22 04:26:00,
2013-05-22 00:31:00,64.8,62.1,29.77,NNW,348,0.0,0.0,91,0.00,BKN,OVC,0.00,0.0,WeatherDisplay:10.37,2013-05-22 04:31:00,
2013-05-22 00:36:00,64.7,62.0,29.77,NNW,348,0.0,0.0,91,0.00,BKN,OVC,0.00,0.0,WeatherDisplay:10.37,2013-05-22 04:36:00,
2013-05-22 00:41:00,64.6,61.9,29.77,NNW,348,0.0,0.0,91,0.00,BKN,OVC,0.00,0.0,WeatherDisplay:10.37,2013-05-22 04:41:00,
2013-05-22 00:46:00,64.5,61.8,29.77,NNW,348,0.0,0.0,91,0.00,BKN,OVC,0.00,0.0,WeatherDisplay:10.37,2013-05-22 04:46:00,
2013-05-22 00:51:00,64.4,61.7,29.77,NNW,348,0.0,0.0,91,0.00,BKN,OVC,0.00,0.0,WeatherDisplay:10.37,2013-05-22 04:51:00,
2013-05-22 00:56:00,64.3,61.6,29.77,NNW,348,0.0,0.0,91,0.00,BKN,OVC,0.00,0.0,WeatherDisplay:10.37,2013-05-22 04:56:00,
2013-05-22 01:01:00,64.2,61.5,29.77,NNW,348,0.0,0.0,91,0.00,BKN,OVC,0.00,0.0,WeatherDisplay:10.37,2013-05-22 05:01:00,
2013-05-22 01:06:00,64.1,61.4,29.77,NNW,348,0.0,0.0,91,0.00,BKN,OVC,0.00,0.0,WeatherDisplay:10.37,2013-05-22 05:06:00,
2013-05-22 01:11:00,64.0,61.3,29.77,NNW,348,0.0,0.0,91,0.00,BKN,OVC,0.00,0.0,WeatherDisplay:10.37,2013-05-22 05:11:00,
2013-05-22 01:16:00,63.9,61.2,29.77,NNW,348,0.0,0.0,91,0.00,BKN,OVC,0.00,0.0,WeatherDisplay:10.37,2013-05-22 05:16:00,
2013-05-22 01:21:00,63.8,61.1,29.77,NNW,348,0.0,0.0,91,0.00,BKN,OVC,0.00,0.0,WeatherDisplay:10.37,2013-05-22 05:21:00,
2013-05-22 01:26:00,63.7,61.0,29.77,NNW,348,0.0,0.0,91,0.00,BKN,OVC,0.00,0.0,WeatherDisplay:10.37,2013-05-22 05:26:00,
2013-05-22 01:31:00,63.6,60.9,29.77,NNW,348,0.0,0.0,91,0.00,BKN,OVC,0.00,0.0,WeatherDisplay:10.37,2013-05-22 05:31:00,
2013-05-22 01:36:00,63.6,60.9,29.76,NNW,348,0.0,0.0,91,0.00,BKN,OVC,0.00,0.0,WeatherDisplay:10.37,2013-05-22 05:36:00,
2013-05-22 01:41:00,63.5,60.8,29.76,NNW,348,0.0,0.0,91,0.00,BKN,OVC,0.00,0.0,WeatherDisplay:10.37,2013-05-22 05:41:00,
2013-05-22 01:46:00,63.5,60.8,29.76,NNW,348,0.0,1.2,91,0.00,BKN,OVC,0.00,0.0,WeatherDisplay:10.37,2013-05-22 05:46:00,
2013-05-22 01:51:00,63.5,60.8,29.76,NNW,348,0.0,0.0,91,0.00,BKN,OVC,0.00,0.0,WeatherDisplay:10.37,2013-05-22 05:51:00,
2013-05-22 01:56:00,63.5,60.8,29.76,NNW,348,0.0,0.0,91,0.00,BKN,OVC,0.00,0.0,WeatherDisplay:10.37,2013-05-22 05:56:00,
2013-05-22 02:01:00,63.4,60.7,29.76,NNW,348,0.0,0.0,91,0.00,BKN,OVC,0.00,0.0,WeatherDisplay:10.37,2013-05-22 06:01:00,
2013-05-22 02:06:00,63.3,60.6,29.76,NNW,348,0.0,0.0,91,0.00,BKN,OVC,0.00,0.0,WeatherDisplay:10.37,2013-05-22 06:06:00,
2013-05-22 02:11:00,63.2,60.5,29.76,NNW,348,0.0,0.0,91,0.00,BKN,OVC,0.00,0.0,WeatherDisplay:10.37,2013-05-22 06:11:00,
2013-05-22 02:16:00,63.1,60.4,29.76,NNW,348,0.0,0.0,91,0.00,BKN,OVC,0.00,0.0,WeatherDisplay:10.37,2013-05-22 06:16:00,
2013-05-22 02:21:00,63.1,60.4,29.76,NNW,348,0.0,1.2,91,0.00,BKN,OVC,0.00,0.0,WeatherDisplay:10.37,2013-05-22 06:21:00,
2013-05-22 02:26:00,63.0,60.3,29.76,NNW,348,0.0,0.0,91,0.00,BKN,OVC,0.00,0.0,WeatherDisplay:10.37,2013-05-22 06:26:00,
2013-05-22 02:31:00,62.9,60.2,29.76,NNW,348,0.0,0.0,91,0.00,BKN,OVC,0.00,0.0,WeatherDisplay:10.37,2013-05-22 06:31:00,
2013-05-22 02:36:00,62.9,60.2,29.76,NNW,348,0.0,0.0,91,0.00,BKN,OVC,0.00,0.0,WeatherDisplay:10.37,2013-05-22 06:36:00,
2013-05-22 02:41:00,62.8,60.1,29.76,NNW,348,0.0,0.0,91,0.00,BKN,OVC,0.00,0.0,WeatherDisplay:10.37,2013-05-22 06:41:00,
2013-05-22 02:46:00,62.7,60.0,29.76,NNW,348,0.0,0.0,91,0.00,BKN,OVC,0.00,0.0,WeatherDisplay:10.37,2013-05-22 06:46:00,
2013-05-22 02:51:00,62.6,59.9,29.75,NNW,348,0.0,0.0,91,0.00,BKN,OVC,0.00,0.0,WeatherDisplay:10.37,2013-05-22 06:51:00,
2013-05-22 02:56:00,62.5,59.8,29.76,NNW,348,0.0,0.0,91,0.00,BKN,OVC,0.00,0.0,WeatherDisplay:10.37,2013-05-22 06:56:00,
2013-05-22 03:01:00,62.5,60.1,29.76,NNW,348,0.0,0.0,92,0.00,BKN,OVC,0.00,0.0,WeatherDisplay:10.37,2013-05-22 07:01:00,
2013-05-22 03:06:00,62.6,60.2,29.76,NNW,348,0.0,1.0,92,0.00,BKN,OVC,0.00,0.0,WeatherDisplay:10.37,2013-05-22 07:06:00,
2013-05-22 03:11:00,62.7,60.3,29.76,NNW,348,0.0,0.0,92,0.00,BKN,OVC,0.00,0.0,WeatherDisplay:10.37,2013-05-22 07:11:00,
2013-05-22 03:16:00,62.9,60.5,29.76,NNW,348,0.0,0.0,92,0.00,BKN,OVC,0.00,0.0,WeatherDisplay:10.37,2013-05-22 07:16:00,
2013-05-22 03:21:00,63.0,60.6,29.76,NNW,348,0.0,0.0,92,0.00,BKN,OVC,0.00,0.0,WeatherDisplay:10.37,2013-05-22 07:21:00,
2013-05-22 03:26:00,62.9,60.5,29.76,NNW,348,0.0,0.0,92,0.00,BKN,OVC,0.00,0.0,WeatherDisplay:10.37,2013-05-22 07:26:00,
2013-05-22 03:31:00,62.9,60.5,29.76,NNW,348,0.0,0.0,92,0.00,BKN,OVC,0.00,0.0,WeatherDisplay:10.37,2013-05-22 07:31:00,
2013-05-22 03:36:00,62.8,60.4,29.76,NNW,348,0.5,3.5,92,0.00,BKN,OVC,0.00,0.0,WeatherDisplay:10.37,2013-05-22 07:36:00,
2013-05-22 03:41:00,62.9,60.5,29.76,NNW,348,0.0,3.5,92,0.00,BKN,OVC,0.00,0.0,WeatherDisplay:10.37,2013-05-22 07:41:00,
2013-05-22 03:46:00,63.0,60.6,29.76,NNW,348,0.1,1.2,92,0.00,BKN,OVC,0.00,0.0,WeatherDisplay:10.37,2013-05-22 07:46:00,
2013-05-22 03:51:00,63.1,60.7,29.76,NNW,348,0.4,2.0,92,0.00,BKN,OVC,0.00,0.0,WeatherDisplay:10.37,2013-05-22 07:51:00,
2013-05-22 03:56:00,63.3,60.9,29.76,NNW,346,0.1,3.5,92,0.00,BKN,OVC,0.00,0.0,WeatherDisplay:10.37,2013-05-22 07:56:00,
2013-05-22 04:01:00,63.5,61.1,29.76,NNW,346,0.2,3.5,92,0.00,BKN,OVC,0.00,0.0,WeatherDisplay:10.37,2013-05-22 08:01:00,
2013-05-22 04:06:00,63.7,61.6,29.76,NNW,346,0.3,1.2,93,0.00,BKN,OVC,0.00,0.0,WeatherDisplay:10.37,2013-05-22 08:06:00,
2013-05-22 04:11:00,63.9,61.5,29.75,NNW,346,0.1,2.3,92,0.00,BKN,OVC,0.00,0.0,WeatherDisplay:10.37,2013-05-22 08:11:00,
2013-05-22 04:16:00,64.0,61.6,29.75,NNW,346,0.2,1.0,92,0.00,BKN,OVC,0.00,0.0,WeatherDisplay:10.37,2013-05-22 08:16:00,
2013-05-22 04:21:00,64.1,61.7,29.76,NNW,346,0.0,1.2,92,0.00,BKN,OVC,0.00,0.0,WeatherDisplay:10.37,2013-05-22 08:21:00,
2013-05-22 04:26:00,64.2,61.8,29.76,NNW,346,0.0,3.5,92,0.00,BKN,OVC,0.00,0.0,WeatherDisplay:10.37,2013-05-22 08:26:00,
2013-05-22 04:31:00,64.3,61.9,29.76,NNW,346,0.0,2.3,92,0.00,BKN,OVC,0.00,0.0,WeatherDisplay:10.37,2013-05-22 08:31:00,
2013-05-22 04:36:00,64.3,61.9,29.76,NNW,346,0.4,2.3,92,0.00,BKN,OVC,0.00,0.0,WeatherDisplay:10.37,2013-05-22 08:36:00,
2013-05-22 04:41:00,64.4,62.0,29.76,NNW,346,0.0,2.3,92,0.00,BKN,OVC,0.00,0.0,WeatherDisplay:10.37,2013-05-22 08:41:00,
2013-05-22 04:46:00,64.5,62.1,29.76,NNW,346,0.0,1.2,92,0.00,BKN,OVC,0.00,0.0,WeatherDisplay:10.37,2013-05-22 08:46:00,
2013-05-22 04:51:00,64.6,62.2,29.75,NNW,346,0.0,1.0,92,0.00,BKN,OVC,0.00,0.0,WeatherDisplay:10.37,2013-05-22 08:51:00,
2013-05-22 04:56:00,64.7,62.3,29.76,NNW,346,0.0,1.2,92,0.00,BKN,OVC,0.00,0.0,WeatherDisplay:10.37,2013-05-22 08:56:00,
2013-05-22 05:01:00,64.8,62.4,29.76,NNW,346,0.4,3.5,92,0.00,BKN,OVC,0.00,0.0,WeatherDisplay:10.37,2013-05-22 09:01:00,
2013-05-22 05:06:00,64.9,62.5,29.76,NNW,346,0.0,1.2,92,0.00,BKN,OVC,0.00,0.0,WeatherDisplay:10.37,2013-05-22 09:06:00,
2013-05-22 05:11:00,64.9,62.5,29.76,NNW,346,0.0,0.0,92,0.00,BKN,OVC,0.00,0.0,WeatherDisplay:10.37,2013-05-22 09:11:00,
2013-05-22 05:16:00,65.0,62.6,29.76,NNW,346,0.0,1.2,92,0.00,BKN,OVC,0.00,0.0,WeatherDisplay:10.37,2013-05-22 09:16:00,
2013-05-22 05:21:00,65.1,62.7,29.76,NNW,346,2.2,4.0,92,0.00,BKN,OVC,0.00,0.0,WeatherDisplay:10.37,2013-05-22 09:21:00,
2013-05-22 05:26:00,65.2,62.8,29.76,NNW,346,0.7,2.3,92,0.00,BKN,OVC,0.00,0.0,WeatherDisplay:10.37,2013-05-22 09:26:00,
2013-05-22 05:31:00,65.2,62.8,29.76,NNW,346,1.3,4.0,92,0.00,BKN,OVC,0.00,0.0,WeatherDisplay:10.37,2013-05-22 09:31:00,
2013-05-22 05:36:00,65.3,62.6,29.76,NNW,346,2.2,4.0,91,0.00,BKN,OVC,0.00,0.0,WeatherDisplay:10.37,2013-05-22 09:36:00,
2013-05-22 05:41:00,65.4,62.7,29.76,NNW,346,0.6,4.0,91,0.00,BKN,OVC,0.00,0.0,WeatherDisplay:10.37,2013-05-22 09:41:00,
2013-05-22 05:46:00,65.5,62.8,29.76,NNW,337,1.0,3.5,91,0.00,BKN,OVC,0.00,0.0,WeatherDisplay:10.37,2013-05-22 09:46:00,
2013-05-22 05:51:00,65.7,63.0,29.76,NW,318,2.4,6.0,91,0.00,BKN,OVC,0.00,0.0,WeatherDisplay:10.37,2013-05-22 09:51:00,
2013-05-22 05:56:00,65.8,63.1,29.76,NW,313,0.4,3.5,91,0.00,BKN,OVC,0.00,0.0,WeatherDisplay:10.37,2013-05-22 09:56:00,
2013-05-22 06:01:00,66.0,63.3,29.76,WNW,301,1.9,7.0,91,0.00,BKN,OVC,0.00,0.0,WeatherDisplay:10.37,2013-05-22 10:01:00,
2013-05-22 06:06:00,66.2,63.5,29.76,WNW,296,0.9,3.5,91,0.00,BKN,OVC,0.00,5.0,WeatherDisplay:10.37,2013-05-22 10:06:00,
2013-05-22 06:11:00,66.5,63.5,29.76,WNW,286,0.1,3.5,90,0.00,BKN,OVC,0.00,7.0,WeatherDisplay:10.37,2013-05-22 10:11:00,
2013-05-22 06:16:00,66.7,63.7,29.76,WNW,282,0.5,4.0,90,0.00,BKN,OVC,0.00,9.0,WeatherDisplay:10.37,2013-05-22 10:16:00,
2013-05-22 06:21:00,66.9,63.6,29.76,WNW,282,0.4,2.3,89,0.00,BKN,OVC,0.00,12.0,WeatherDisplay:10.37,2013-05-22 10:21:00,
2013-05-22 06:26:00,67.1,63.7,29.76,West,280,0.7,3.5,89,0.00,BKN,OVC,0.00,18.0,WeatherDisplay:10.37,2013-05-22 10:26:00,
2013-05-22 06:31:00,67.4,63.7,29.76,West,275,1.1,6.9,88,0.00,BKN,OVC,0.00,21.0,WeatherDisplay:10.37,2013-05-22 10:31:00,
2013-05-22 06:36:00,67.6,63.6,29.76,West,275,0.1,1.2,87,0.00,BKN,OVC,0.00,26.0,WeatherDisplay:10.37,2013-05-22 10:36:00,
2013-05-22 06:41:00,67.7,63.7,29.76,West,274,0.9,4.0,87,0.00,BKN,OVC,0.00,30.0,WeatherDisplay:10.37,2013-05-22 10:41:00,
2013-05-22 06:46:00,67.9,63.6,29.76,WSW,254,1.8,9.2,86,0.00,BKN,OVC,0.00,37.0,WeatherDisplay:10.37,2013-05-22 10:46:00,
2013-05-22 06:51:00,68.2,63.9,29.76,WSW,252,0.5,3.5,86,0.00,BKN,OVC,0.00,49.0,WeatherDisplay:10.37,2013-05-22 10:51:00,
2013-05-22 06:56:00,68.4,63.7,29.76,WSW,246,0.3,3.5,85,0.00,BKN,OVC,0.00,63.0,WeatherDisplay:10.37,2013-05-22 10:56:00,
2013-05-22 07:01:00,68.7,64.0,29.76,WSW,246,1.2,4.0,85,0.00,BKN,OVC,0.00,91.0,WeatherDisplay:10.37,2013-05-22 11:01:00,
2013-05-22 07:06:00,68.9,64.2,29.77,WSW,246,0.9,4.0,85,0.00,BKN,OVC,0.00,77.0,WeatherDisplay:10.37,2013-05-22 11:06:00,
2013-05-22 07:11:00,69.2,64.2,29.77,WSW,246,1.8,5.0,84,0.00,BKN,OVC,0.00,70.0,WeatherDisplay:10.37,2013-05-22 11:11:00,
2013-05-22 07:16:00,69.4,64.4,29.77,WSW,241,1.5,6.0,84,0.00,BKN,OVC,0.00,67.0,WeatherDisplay:10.37,2013-05-22 11:16:00,
2013-05-22 07:21:00,69.6,64.5,29.77,WSW,241,0.4,3.5,84,0.00,BKN,OVC,0.00,95.0,WeatherDisplay:10.37,2013-05-22 11:21:00,
2013-05-22 07:26:00,69.7,64.3,29.77,WSW,241,0.9,4.0,83,0.00,BKN,OVC,0.00,118.0,WeatherDisplay:10.37,2013-05-22 11:26:00,
2013-05-22 07:31:00,69.9,64.5,29.77,WSW,241,3.0,5.0,83,0.00,BKN,OVC,0.00,120.0,WeatherDisplay:10.37,2013-05-22 11:31:00,
2013-05-22 07:36:00,70.2,64.8,29.77,SW,229,0.5,11.5,83,0.00,BKN,OVC,0.00,121.0,WeatherDisplay:10.37,2013-05-22 11:36:00,
2013-05-22 07:41:00,70.4,65.0,29.77,SW,219,1.8,9.2,83,0.00,BKN,OVC,0.00,139.0,WeatherDisplay:10.37,2013-05-22 11:41:00,
2013-05-22 07:46:00,70.6,65.2,29.78,SW,219,2.4,7.0,83,0.00,BKN,OVC,0.00,137.0,WeatherDisplay:10.37,2013-05-22 11:46:00,
2013-05-22 07:51:00,70.8,65.0,29.78,SW,229,2.0,8.1,82,0.00,BKN,OVC,0.00,128.0,WeatherDisplay:10.37,2013-05-22 11:51:00,
2013-05-22 07:56:00,71.1,65.3,29.78,SW,229,0.9,4.6,82,0.00,BKN,OVC,0.00,128.0,WeatherDisplay:10.37,2013-05-22 11:56:00,
2013-05-22 08:01:00,71.3,65.2,29.78,SW,228,0.1,2.3,81,0.00,BKN,OVC,0.00,123.0,WeatherDisplay:10.37,2013-05-22 12:01:00,
2013-05-22 08:06:00,71.5,65.4,29.78,SW,227,2.7,6.0,81,0.00,BKN,OVC,0.00,134.0,WeatherDisplay:10.37,2013-05-22 12:06:00,
2013-05-22 08:11:00,71.6,65.5,29.78,SW,216,0.7,8.1,81,0.00,BKN,OVC,0.00,134.0,WeatherDisplay:10.37,2013-05-22 12:11:00,
2013-05-22 08:16:00,71.8,65.7,29.78,SW,218,1.8,5.0,81,0.00,BKN,OVC,0.00,141.0,WeatherDisplay:10.37,2013-05-22 12:16:00,
2013-05-22 08:21:00,72.0,65.8,29.78,SW,218,0.7,4.0,81,0.00,BKN,OVC,0.00,153.0,WeatherDisplay:10.37,2013-05-22 12:21:00,
2013-05-22 08:26:00,72.1,65.6,29.78,SSW,213,3.7,8.1,80,0.00,BKN,OVC,0.00,179.0,WeatherDisplay:10.37,2013-05-22 12:26:00,
2013-05-22 08:31:00,72.3,66.1,29.78,SSW,213,0.9,4.0,81,0.00,BKN,OVC,0.00,174.0,WeatherDisplay:10.37,2013-05-22 12:31:00,
2013-05-22 08:36:00,72.5,66.0,29.78,SW,216,3.1,7.0,80,0.00,BKN,OVC,0.00,171.0,WeatherDisplay:10.37,2013-05-22 12:36:00,
2013-05-22 08:41:00,72.6,66.1,29.78,SW,215,3.7,9.2,80,0.00,BKN,OVC,0.00,155.0,WeatherDisplay:10.37,2013-05-22 12:41:00,
2013-05-22 08:46:00,72.8,66.3,29.78,SW,216,1.5,7.0,80,0.00,BKN,OVC,0.00,148.0,WeatherDisplay:10.37,2013-05-22 12:46:00,
2013-05-22 08:51:00,72.9,66.0,29.79,SW,220,1.7,4.6,79,0.00,BKN,OVC,0.00,174.0,WeatherDisplay:10.37,2013-05-22 12:51:00,
2013-05-22 08:56:00,72.9,66.0,29.78,SW,219,2.5,10.4,79,0.00,BKN,OVC,0.00,186.0,WeatherDisplay:10.37,2013-05-22 12:56:00,
2013-05-22 09:01:00,73.1,66.2,29.78,SSW,206,1.7,4.6,79,0.00,BKN,OVC,0.00,197.0,WeatherDisplay:10.37,2013-05-22 13:01:00,
2013-05-22 09:06:00,73.3,66.4,29.78,SW,214,2.4,8.1,79,0.00,BKN,OVC,0.00,214.0,WeatherDisplay:10.37,2013-05-22 13:06:00,
2013-05-22 09:11:00,73.4,66.1,29.78,SW,215,3.3,6.9,78,0.00,BKN,OVC,0.00,274.0,WeatherDisplay:10.37,2013-05-22 13:11:00,
2013-05-22 09:16:00,73.7,66.4,29.78,SSW,209,5.6,10.4,78,0.00,BKN,OVC,0.00,274.0,WeatherDisplay:10.37,2013-05-22 13:16:00,
2013-05-22 09:21:00,73.9,66.6,29.78,South,182,2.9,10.4,78,0.00,BKN,OVC,0.00,302.0,WeatherDisplay:10.37,2013-05-22 13:21:00,
2013-05-22 09:26:00,74.2,66.5,29.78,SSE,168,5.6,12.0,77,0.00,BKN,OVC,0.00,443.0,WeatherDisplay:10.37,2013-05-22 13:26:00,
2013-05-22 09:31:00,74.6,66.9,29.79,SSW,210,3.2,8.1,77,0.00,BKN,OVC,0.00,563.0,WeatherDisplay:10.37,2013-05-22 13:31:00,
2013-05-22 09:36:00,75.0,67.3,29.78,SSW,211,3.5,9.2,77,0.00,BKN,OVC,0.00,304.0,WeatherDisplay:10.37,2013-05-22 13:36:00,
2013-05-22 09:41:00,75.5,67.4,29.78,WSW,251,3.8,11.0,76,0.00,BKN,OVC,0.00,624.0,WeatherDisplay:10.37,2013-05-22 13:41:00,
2013-05-22 09:46:00,75.9,67.4,29.78,SW,232,2.2,11.5,75,0.00,BKN,OVC,0.00,557.0,WeatherDisplay:10.37,2013-05-22 13:46:00,
2013-05-22 09:51:00,76.2,67.7,29.78,WSW,250,4.4,9.2,75,0.00,BKN,OVC,0.00,598.0,WeatherDisplay:10.37,2013-05-22 13:51:00,
2013-05-22 09:56:00,76.6,67.7,29.78,SW,236,3.3,13.0,74,0.00,BKN,OVC,0.00,577.0,WeatherDisplay:10.37,2013-05-22 13:56:00,
2013-05-22 10:01:00,76.9,67.6,29.79,SW,234,6.5,10.4,73,0.00,BKN,OVC,0.00,633.0,WeatherDisplay:10.37,2013-05-22 14:01:00,
2013-05-22 10:06:00,77.0,67.3,29.79,SW,229,7.0,13.0,72,0.00,BKN,OVC,0.00,649.0,WeatherDisplay:10.37,2013-05-22 14:06:00,
2013-05-22 10:11:00,77.2,67.5,29.79,West,263,5.3,17.3,72,0.00,BKN,OVC,0.00,663.0,WeatherDisplay:10.37,2013-05-22 14:11:00,
2013-05-22 10:16:00,77.3,67.6,29.78,West,259,5.2,11.5,72,0.00,BKN,OVC,0.00,693.0,WeatherDisplay:10.37,2013-05-22 14:16:00,
2013-05-22 10:21:00,77.4,67.3,29.78,WSW,246,5.2,11.5,71,0.00,BKN,OVC,0.00,274.0,WeatherDisplay:10.37,2013-05-22 14:21:00,
2013-05-22 10:26:00,77.6,68.3,29.78,SSW,209,3.6,8.0,73,0.00,BKN,OVC,0.00,575.0,WeatherDisplay:10.37,2013-05-22 14:26:00,
2013-05-22 10:31:00,77.7,67.5,29.78,SW,223,3.3,11.5,71,0.00,BKN,OVC,0.00,724.0,WeatherDisplay:10.37,2013-05-22 14:31:00,
2013-05-22 10:36:00,78.1,67.5,29.78,SW,217,5.2,12.7,70,0.00,BKN,OVC,0.00,795.0,WeatherDisplay:10.37,2013-05-22 14:36:00,
2013-05-22 10:41:00,78.6,68.0,29.78,SW,222,4.5,12.0,70,0.00,BKN,OVC,0.00,888.0,WeatherDisplay:10.37,2013-05-22 14:41:00,
2013-05-22 10:46:00,79.1,68.9,29.78,SW,233,3.3,6.9,71,0.00,BKN,OVC,0.00,408.0,WeatherDisplay:10.37,2013-05-22 14:46:00,
2013-05-22 10:51:00,79.3,67.4,29.78,West,261,4.0,9.2,67,0.00,BKN,OVC,0.00,777.0,WeatherDisplay:10.37,2013-05-22 14:51:00,
2013-05-22 10:56:00,79.5,68.4,29.78,SW,224,3.6,10.4,69,0.00,BKN,OVC,0.00,900.0,WeatherDisplay:10.37,2013-05-22 14:56:00,
2013-05-22 11:01:00,80.0,68.1,29.78,WSW,257,6.4,10.4,67,0.00,CLR,OVC,0.00,410.0,WeatherDisplay:10.37,2013-05-22 15:01:00,
2013-05-22 11:06:00,80.1,68.6,29.78,WNW,284,2.6,10.4,68,0.00,CLR,OVC,0.00,838.0,WeatherDisplay:10.37,2013-05-22 15:06:00,
2013-05-22 11:11:00,80.3,68.3,29.79,WSW,250,8.8,16.1,67,0.00,CLR,OVC,0.00,788.0,WeatherDisplay:10.37,2013-05-22 15:11:00,
2013-05-22 11:16:00,80.2,67.4,29.79,WSW,251,6.6,11.0,65,0.00,CLR,OVC,0.00,807.0,WeatherDisplay:10.37,2013-05-22 15:16:00,
2013-05-22 11:21:00,80.1,67.3,29.78,SW,236,5.0,11.5,65,0.00,CLR,OVC,0.00,802.0,WeatherDisplay:10.37,2013-05-22 15:21:00,
2013-05-22 11:26:00,80.3,67.0,29.78,WSW,258,7.6,12.7,64,0.00,CLR,OVC,0.00,807.0,WeatherDisplay:10.37,2013-05-22 15:26:00,
2013-05-22 11:31:00,80.3,67.9,29.78,WNW,288,3.4,8.1,66,0.00,CLR,OVC,0.00,833.0,WeatherDisplay:10.37,2013-05-22 15:31:00,
2013-05-22 11:36:00,80.6,68.2,29.78,WSW,252,5.0,10.0,66,0.00,CLR,OVC,0.00,838.0,WeatherDisplay:10.37,2013-05-22 15:36:00,
2013-05-22 11:41:00,81.0,68.1,29.78,WNW,289,4.8,10.4,65,0.00,CLR,OVC,0.00,888.0,WeatherDisplay:10.37,2013-05-22 15:41:00,
2013-05-22 11:46:00,81.4,68.5,29.78,WSW,248,6.0,9.2,65,0.00,CLR,OVC,0.00,946.0,WeatherDisplay:10.37,2013-05-22 15:46:00,
2013-05-22 11:51:00,81.8,67.0,29.78,WNW,296,4.1,11.5,61,0.00,CLR,OVC,0.00,983.0,WeatherDisplay:10.37,2013-05-22 15:51:00,
2013-05-22 11:56:00,81.8,66.6,29.78,West,259,2.7,11.5,60,0.00,CLR,OVC,0.00,366.0,WeatherDisplay:10.37,2013-05-22 15:56:00,
2013-05-22 12:01:00,81.5,65.8,29.78,West,263,6.3,10.4,59,0.00,CLR,OVC,0.00,499.0,WeatherDisplay:10.37,2013-05-22 16:01:00,
2013-05-22 12:06:00,81.2,66.5,29.78,WSW,244,5.9,11.0,61,0.00,CLR,OVC,0.00,912.0,WeatherDisplay:10.37,2013-05-22 16:06:00,
2013-05-22 12:11:00,81.2,66.0,29.77,West,260,5.1,9.2,60,0.00,CLR,OVC,0.00,918.0,WeatherDisplay:10.37,2013-05-22 16:11:00,
2013-05-22 12:16:00,80.9,65.7,29.77,WSW,254,2.9,6.9,60,0.00,CLR,OVC,0.00,225.0,WeatherDisplay:10.37,2013-05-22 16:16:00,
2013-05-22 12:21:00,80.6,65.4,29.77,WNW,302,3.9,10.4,60,0.00,BKN,OVC,0.00,1027.0,WeatherDisplay:10.37,2013-05-22 16:21:00,
2013-05-22 12:26:00,80.6,66.8,29.77,West,265,3.0,7.0,63,0.00,BKN,OVC,0.00,914.0,WeatherDisplay:10.37,2013-05-22 16:26:00,
2013-05-22 12:31:00,80.9,67.1,29.77,WSW,257,2.8,8.1,63,0.00,BKN,OVC,0.00,926.0,WeatherDisplay:10.37,2013-05-22 16:31:00,
2013-05-22 12:36:00,81.2,66.9,29.77,West,262,7.4,15.0,62,0.00,BKN,OVC,0.00,925.0,WeatherDisplay:10.37,2013-05-22 16:36:00,
2013-05-22 12:41:00,81.5,67.2,29.77,West,262,1.6,10.4,62,0.00,BKN,OVC,0.00,974.0,WeatherDisplay:10.37,2013-05-22 16:41:00,
2013-05-22 12:46:00,81.9,67.1,29.76,West,263,6.4,9.2,61,0.00,BKN,OVC,0.00,976.0,WeatherDisplay:10.37,2013-05-22 16:46:00,
2013-05-22 12:51:00,82.0,66.7,29.76,WSW,248,4.8,8.1,60,0.00,BKN,OVC,0.00,891.0,WeatherDisplay:10.37,2013-05-22 16:51:00,
2013-05-22 12:56:00,82.1,66.8,29.76,West,271,3.2,8.0,60,0.00,BKN,OVC,0.00,951.0,WeatherDisplay:10.37,2013-05-22 16:56:00,
2013-05-22 13:01:00,82.4,67.6,29.76,WSW,257,3.1,6.0,61,0.00,BKN,OVC,0.00,842.0,WeatherDisplay:10.37,2013-05-22 17:01:00,
2013-05-22 13:06:00,82.8,66.5,29.76,WSW,252,6.3,11.5,58,0.00,BKN,OVC,0.00,904.0,WeatherDisplay:10.37,2013-05-22 17:06:00,
2013-05-22 13:11:00,82.9,68.1,29.76,West,281,1.3,10.4,61,0.00,BKN,OVC,0.00,914.0,WeatherDisplay:10.37,2013-05-22 17:11:00,
2013-05-22 13:16:00,83.3,68.0,29.76,West,275,1.2,5.8,60,0.00,BKN,OVC,0.00,877.0,WeatherDisplay:10.37,2013-05-22 17:16:00,
2013-05-22 13:21:00,83.7,67.4,29.75,WNW,300,3.5,9.2,58,0.00,BKN,OVC,0.00,833.0,WeatherDisplay:10.37,2013-05-22 17:21:00,
2013-05-22 13:26:00,83.6,67.3,29.75,WNW,286,6.1,11.0,58,0.00,BKN,OVC,0.00,882.0,WeatherDisplay:10.37,2013-05-22 17:26:00,
2013-05-22 13:31:00,83.5,68.2,29.75,WNW,286,1.9,9.2,60,0.00,BKN,OVC,0.00,881.0,WeatherDisplay:10.37,2013-05-22 17:31:00,
2013-05-22 13:36:00,83.4,68.1,29.75,WNW,286,5.0,10.4,60,0.00,BKN,OVC,0.00,875.0,WeatherDisplay:10.37,2013-05-22 17:36:00,
2013-05-22 13:41:00,83.0,67.2,29.75,West,278,8.1,13.0,59,0.00,BKN,OVC,0.00,865.0,WeatherDisplay:10.37,2013-05-22 17:41:00,
2013-05-22 13:46:00,82.7,66.9,29.75,WSW,246,6.3,12.7,59,0.00,BKN,OVC,0.00,867.0,WeatherDisplay:10.37,2013-05-22 17:46:00,
2013-05-22 13:51:00,82.3,67.5,29.75,West,273,5.2,10.4,61,0.00,BKN,OVC,0.00,872.0,WeatherDisplay:10.37,2013-05-22 17:51:00,
2013-05-22 13:56:00,82.2,67.4,29.74,WSW,244,5.5,10.4,61,0.00,BKN,OVC,0.00,863.0,WeatherDisplay:10.37,2013-05-22 17:56:00,
2013-05-22 14:01:00,82.1,66.4,29.74,West,259,9.9,13.0,59,0.00,BKN,OVC,0.00,863.0,WeatherDisplay:10.37,2013-05-22 18:01:00,
2013-05-22 14:06:00,81.9,66.6,29.73,West,275,3.5,9.2,60,0.00,SCT,OVC,0.00,861.0,WeatherDisplay:10.37,2013-05-22 18:06:00,
2013-05-22 14:11:00,82.0,66.7,29.73,West,276,2.7,8.1,60,0.00,SCT,OVC,0.00,860.0,WeatherDisplay:10.37,2013-05-22 18:11:00,
2013-05-22 14:16:00,82.3,67.5,29.73,West,261,4.3,9.0,61,0.00,SCT,OVC,0.00,858.0,WeatherDisplay:10.37,2013-05-22 18:16:00,
2013-05-22 14:21:00,82.4,66.1,29.73,West,261,4.7,9.2,58,0.00,SCT,OVC,0.00,853.0,WeatherDisplay:10.37,2013-05-22 18:21:00,
2013-05-22 14:26:00,82.5,66.7,29.73,WNW,282,2.7,8.1,59,0.00,SCT,OVC,0.00,846.0,WeatherDisplay:10.37,2013-05-22 18:26:00,
2013-05-22 14:31:00,82.7,66.4,29.73,WSW,254,3.0,10.4,58,0.00,SCT,OVC,0.00,842.0,WeatherDisplay:10.37,2013-05-22 18:31:00,
2013-05-22 14:36:00,82.8,67.0,29.73,WSW,243,5.2,10.4,59,0.00,SCT,OVC,0.00,838.0,WeatherDisplay:10.37,2013-05-22 18:36:00,
2013-05-22 14:41:00,82.9,66.6,29.73,West,266,3.7,7.0,58,0.00,SCT,OVC,0.00,833.0,WeatherDisplay:10.37,2013-05-22 18:41:00,
2013-05-22 14:46:00,83.0,67.2,29.73,West,265,5.3,9.2,59,0.00,SCT,OVC,0.00,826.0,WeatherDisplay:10.37,2013-05-22 18:46:00,
2013-05-22 14:51:00,83.2,66.4,29.73,WSW,252,5.6,11.5,57,0.00,SCT,OVC,0.00,821.0,WeatherDisplay:10.37,2013-05-22 18:51:00,
2013-05-22 14:56:00,83.2,67.4,29.72,West,273,2.9,8.1,59,0.00,SCT,OVC,0.00,814.0,WeatherDisplay:10.37,2013-05-22 18:56:00,
2013-05-22 15:01:00,83.5,67.2,29.72,WSW,252,3.5,10.4,58,0.00,SCT,OVC,0.00,807.0,WeatherDisplay:10.37,2013-05-22 19:01:00,
2013-05-22 15:06:00,83.7,67.4,29.72,WSW,253,3.1,8.1,58,0.00,SCT,OVC,0.00,800.0,WeatherDisplay:10.37,2013-05-22 19:06:00,
2013-05-22 15:11:00,83.8,67.4,29.72,West,261,3.9,10.4,58,0.00,SCT,OVC,0.00,791.0,WeatherDisplay:10.37,2013-05-22 19:11:00,
2013-05-22 15:16:00,83.9,67.5,29.72,WSW,254,2.3,9.2,58,0.00,SCT,OVC,0.00,784.0,WeatherDisplay:10.37,2013-05-22 19:16:00,
2013-05-22 15:21:00,84.1,67.2,29.71,West,262,4.1,9.2,57,0.00,SCT,OVC,0.00,775.0,WeatherDisplay:10.37,2013-05-22 19:21:00,
2013-05-22 15:26:00,84.0,67.1,29.71,WSW,257,4.2,8.1,57,0.00,SCT,OVC,0.00,766.0,WeatherDisplay:10.37,2013-05-22 19:26:00,
2013-05-22 15:31:00,83.9,66.5,29.71,WSW,237,2.6,9.2,56,0.00,SCT,OVC,0.00,752.0,WeatherDisplay:10.37,2013-05-22 19:31:00,
2013-05-22 15:36:00,84.1,67.2,29.70,WSW,246,2.7,9.2,57,0.00,SCT,OVC,0.00,745.0,WeatherDisplay:10.37,2013-05-22 19:36:00,
2013-05-22 15:41:00,84.2,66.8,29.70,WSW,250,1.8,6.9,56,0.00,SCT,OVC,0.00,737.0,WeatherDisplay:10.37,2013-05-22 19:41:00,
2013-05-22 15:46:00,84.5,67.1,29.70,WSW,252,1.6,4.6,56,0.00,SCT,OVC,0.00,726.0,WeatherDisplay:10.37,2013-05-22 19:46:00,
2013-05-22 15:51:00,84.9,68.0,29.69,WSW,254,2.4,7.0,57,0.00,SCT,OVC,0.00,719.0,WeatherDisplay:10.37,2013-05-22 19:51:00,
2013-05-22 15:56:00,85.3,67.8,29.69,WSW,254,0.4,3.5,56,0.00,SCT,OVC,0.00,705.0,WeatherDisplay:10.37,2013-05-22 19:56:00,
2013-05-22 16:01:00,85.6,68.1,29.69,WSW,252,1.4,8.1,56,0.00,SCT,OVC,0.00,694.0,WeatherDisplay:10.37,2013-05-22 20:01:00,
2013-05-22 16:06:00,85.9,67.9,29.69,WSW,252,1.7,4.6,55,0.00,SCT,OVC,0.00,680.0,WeatherDisplay:10.37,2013-05-22 20:06:00,
2013-05-22 16:11:00,86.1,67.5,29.68,WSW,252,0.7,3.5,54,0.00,SCT,OVC,0.00,666.0,WeatherDisplay:10.37,2013-05-22 20:11:00,
2013-05-22 16:16:00,86.5,68.4,29.68,WSW,252,0.7,4.6,55,0.00,SCT,OVC,0.00,664.0,WeatherDisplay:10.37,2013-05-22 20:16:00,
2013-05-22 16:21:00,86.9,67.7,29.68,WSW,250,0.8,4.6,53,0.00,SCT,OVC,0.00,647.0,WeatherDisplay:10.37,2013-05-22 20:21:00,
2013-05-22 16:26:00,87.2,68.5,29.68,WSW,250,3.2,7.0,54,0.00,SCT,OVC,0.00,636.0,WeatherDisplay:10.37,2013-05-22 20:26:00,
2013-05-22 16:31:00,87.4,68.2,29.67,WSW,250,0.3,3.5,53,0.00,SCT,OVC,0.00,601.0,WeatherDisplay:10.37,2013-05-22 20:31:00,
2013-05-22 16:36:00,87.6,68.4,29.67,WSW,257,1.4,5.0,53,0.00,SCT,OVC,0.00,612.0,WeatherDisplay:10.37,2013-05-22 20:36:00,
2013-05-22 16:41:00,87.7,68.4,29.67,WSW,252,3.3,7.0,53,0.00,SCT,OVC,0.00,603.0,WeatherDisplay:10.37,2013-05-22 20:41:00,
2013-05-22 16:46:00,87.9,67.5,29.66,WSW,250,1.2,3.5,51,0.00,SCT,OVC,0.00,596.0,WeatherDisplay:10.37,2013-05-22 20:46:00,
2013-05-22 16:51:00,88.0,68.2,29.66,WSW,250,0.3,3.5,52,0.00,SCT,OVC,0.00,589.0,WeatherDisplay:10.37,2013-05-22 20:51:00,
2013-05-22 16:56:00,88.3,68.4,29.66,WSW,250,1.5,4.0,52,0.00,SCT,OVC,0.00,615.0,WeatherDisplay:10.37,2013-05-22 20:56:00,
2013-05-22 17:01:00,88.5,68.1,29.66,WSW,248,2.9,4.6,51,0.00,SCT,OVC,0.00,557.0,WeatherDisplay:10.37,2013-05-22 21:01:00,
2013-05-22 17:06:00,88.6,67.6,29.65,WSW,248,1.7,5.0,50,0.00,SCT,OVC,0.00,257.0,WeatherDisplay:10.37,2013-05-22 21:06:00,
2013-05-22 17:11:00,88.7,68.2,29.65,WSW,254,0.8,6.9,51,0.00,SCT,OVC,0.00,624.0,WeatherDisplay:10.37,2013-05-22 21:11:00,
2013-05-22 17:16:00,88.6,67.0,29.65,WSW,244,3.5,8.1,49,0.00,SCT,OVC,0.00,220.0,WeatherDisplay:10.37,2013-05-22 21:16:00,
2013-05-22 17:21:00,88.6,68.2,29.65,WSW,244,0.3,5.0,51,0.00,SCT,OVC,0.00,496.0,WeatherDisplay:10.37,2013-05-22 21:21:00,
2013-05-22 17:26:00,88.7,66.5,29.64,WSW,241,3.1,8.1,48,0.00,SCT,OVC,0.00,387.0,WeatherDisplay:10.37,2013-05-22 21:26:00,
2013-05-22 17:31:00,88.9,64.2,29.64,WSW,257,6.7,10.4,44,0.00,SCT,OVC,0.00,227.0,WeatherDisplay:10.37,2013-05-22 21:31:00,
2013-05-22 17:36:00,88.8,66.6,29.64,SW,214,4.1,9.2,48,0.00,SCT,OVC,0.00,540.0,WeatherDisplay:10.37,2013-05-22 21:36:00,
2013-05-22 17:41:00,88.4,64.4,29.64,SW,232,7.2,16.1,45,0.00,SCT,OVC,0.00,193.0,WeatherDisplay:10.37,2013-05-22 21:41:00,
2013-05-22 17:46:00,87.9,64.5,29.64,SSW,192,3.5,14.0,46,0.00,SCT,OVC,0.00,142.0,WeatherDisplay:10.37,2013-05-22 21:46:00,
2013-05-22 17:51:00,87.3,63.4,29.64,SW,216,3.4,11.5,45,0.00,SCT,OVC,0.00,216.0,WeatherDisplay:10.37,2013-05-22 21:51:00,
2013-05-22 17:56:00,86.8,62.9,29.64,WSW,244,7.5,16.1,45,0.00,SCT,OVC,0.00,100.0,WeatherDisplay:10.37,2013-05-22 21:56:00,
2013-05-22 18:01:00,86.3,63.1,29.64,SSW,201,4.3,13.8,46,0.00,SCT,OVC,0.00,141.0,WeatherDisplay:10.37,2013-05-22 22:01:00,
2013-05-22 18:06:00,86.0,62.8,29.64,SW,222,5.2,10.4,46,0.00,SCT,OVC,0.00,163.0,WeatherDisplay:10.37,2013-05-22 22:06:00,
2013-05-22 18:11:00,86.0,62.8,29.64,SSW,200,8.5,18.4,46,0.00,SCT,OVC,0.00,229.0,WeatherDisplay:10.37,2013-05-22 22:11:00,
2013-05-22 18:16:00,86.1,63.5,29.64,South,182,5.0,10.4,47,0.00,SCT,OVC,0.00,142.0,WeatherDisplay:10.37,2013-05-22 22:16:00,
2013-05-22 18:21:00,86.1,62.9,29.64,SW,235,4.1,9.0,46,0.00,SCT,OVC,0.00,102.0,WeatherDisplay:10.37,2013-05-22 22:21:00,
2013-05-22 18:26:00,85.9,62.7,29.64,SW,216,7.6,15.0,46,0.00,SCT,OVC,0.00,100.0,WeatherDisplay:10.37,2013-05-22 22:26:00,
2013-05-22 18:31:00,85.6,63.1,29.63,SW,223,3.5,11.5,47,0.00,SCT,OVC,0.00,56.0,WeatherDisplay:10.37,2013-05-22 22:31:00,
2013-05-22 18:36:00,85.3,62.8,29.63,SSW,212,4.1,7.0,47,0.00,SCT,OVC,0.00,88.0,WeatherDisplay:10.37,2013-05-22 22:36:00,
2013-05-22 18:41:00,85.1,62.6,29.63,SW,217,2.1,9.2,47,0.00,SCT,OVC,0.00,47.0,WeatherDisplay:10.37,2013-05-22 22:41:00,
2013-05-22 18:46:00,84.9,63.0,29.63,SW,226,1.7,8.1,48,0.00,SCT,OVC,0.00,60.0,WeatherDisplay:10.37,2013-05-22 22:46:00,
2013-05-22 18:51:00,84.6,62.1,29.64,SW,221,3.3,11.5,47,0.00,SCT,OVC,0.00,40.0,WeatherDisplay:10.37,2013-05-22 22:51:00,
2013-05-22 18:56:00,84.3,62.5,29.64,WSW,256,2.5,10.4,48,0.00,SCT,OVC,0.00,86.0,WeatherDisplay:10.37,2013-05-22 22:56:00,
2013-05-22 19:01:00,84.0,62.8,29.64,WSW,255,4.8,11.5,49,0.00,SCT,OVC,0.00,76.0,WeatherDisplay:10.37,2013-05-22 23:01:00,
2013-05-22 19:06:00,83.5,62.9,29.64,WSW,256,2.7,9.2,50,0.00,BKN,OVC,0.00,76.0,WeatherDisplay:10.37,2013-05-22 23:06:00,
2013-05-22 19:11:00,82.9,63.5,29.65,West,263,0.9,5.8,52,0.00,BKN,OVC,0.00,56.0,WeatherDisplay:10.37,2013-05-22 23:11:00,
2013-05-22 19:16:00,82.4,62.5,29.65,WSW,254,10.2,16.0,51,0.00,BKN,OVC,0.00,65.0,WeatherDisplay:10.37,2013-05-22 23:16:00,
2013-05-22 19:21:00,81.5,62.2,29.66,WSW,250,4.8,11.5,52,0.00,BKN,OVC,0.00,63.0,WeatherDisplay:10.37,2013-05-22 23:21:00,
2013-05-22 19:26:00,80.6,61.9,29.66,West,263,4.2,11.5,53,0.00,BKN,OVC,0.00,113.0,WeatherDisplay:10.37,2013-05-22 23:26:00,
2013-05-22 19:31:00,80.0,61.9,29.66,WSW,251,5.9,17.3,54,0.00,BKN,OVC,0.00,153.0,WeatherDisplay:10.37,2013-05-22 23:31:00,
2013-05-22 19:36:00,79.6,62.5,29.66,West,279,6.5,17.3,56,0.00,BKN,OVC,0.00,113.0,WeatherDisplay:10.37,2013-05-22 23:36:00,
2013-05-22 19:41:00,79.0,62.0,29.66,WSW,258,6.0,18.4,56,0.00,BKN,OVC,0.00,81.0,WeatherDisplay:10.37,2013-05-22 23:41:00,
2013-05-22 19:46:00,78.5,62.0,29.67,WSW,257,7.6,13.8,57,0.00,BKN,OVC,0.00,76.0,WeatherDisplay:10.37,2013-05-22 23:46:00,
2013-05-22 19:51:00,77.9,62.4,29.67,WSW,252,6.9,15.0,59,0.00,BKN,OVC,0.00,69.0,WeatherDisplay:10.37,2013-05-22 23:51:00,
2013-05-22 19:56:00,77.5,62.5,29.67,WSW,250,4.2,15.0,60,0.00,BKN,OVC,0.00,58.0,WeatherDisplay:10.37,2013-05-22 23:56:00,
2013-05-22 20:01:00,77.0,62.0,29.67,WSW,244,6.8,11.5,60,0.00,BKN,OVC,0.00,53.0,WeatherDisplay:10.37,2013-05-23 00:01:00,
2013-05-22 20:06:00,76.6,62.1,29.67,West,265,5.9,11.5,61,0.00,BKN,OVC,0.00,46.0,WeatherDisplay:10.37,2013-05-23 00:06:00,
2013-05-22 20:11:00,76.3,61.9,29.67,SW,234,3.9,10.4,61,0.00,BKN,OVC,0.00,37.0,WeatherDisplay:10.37,2013-05-23 00:11:00,
2013-05-22 20:16:00,76.0,62.0,29.67,WSW,248,4.5,11.0,62,0.00,BKN,OVC,0.00,26.0,WeatherDisplay:10.37,2013-05-23 00:16:00,
2013-05-22 20:21:00,75.6,61.2,29.67,WSW,250,7.6,16.1,61,0.00,BKN,OVC,0.00,18.0,WeatherDisplay:10.37,2013-05-23 00:21:00,
2013-05-22 20:26:00,75.4,61.5,29.67,WSW,238,5.6,11.5,62,0.00,BKN,OVC,0.00,16.0,WeatherDisplay:10.37,2013-05-23 00:26:00,
2013-05-22 20:31:00,75.2,61.3,29.67,WSW,256,5.1,11.0,62,0.00,BKN,OVC,0.00,12.0,WeatherDisplay:10.37,2013-05-23 00:31:00,
2013-05-22 20:36:00,75.0,61.1,29.67,WSW,254,3.3,8.1,62,0.00,BKN,OVC,0.00,9.0,WeatherDisplay:10.37,2013-05-23 00:36:00,
2013-05-22 20:41:00,74.8,60.9,29.67,WSW,257,4.6,11.5,62,0.00,BKN,OVC,0.00,0.0,WeatherDisplay:10.37,2013-05-23 00:41:00,
2013-05-22 20:46:00,74.6,61.2,29.67,WSW,250,5.2,9.2,63,0.00,BKN,OVC,0.00,0.0,WeatherDisplay:10.37,2013-05-23 00:46:00,
2013-05-22 20:51:00,74.3,60.9,29.68,SW,236,5.1,9.2,63,0.00,BKN,OVC,0.00,0.0,WeatherDisplay:10.37,2013-05-23 00:51:00,
2013-05-22 20:56:00,74.1,61.1,29.69,SW,234,1.0,11.5,64,0.00,BKN,OVC,0.00,0.0,WeatherDisplay:10.37,2013-05-23 00:56:00,
2013-05-22 21:01:00,73.9,61.0,29.69,South,171,3.4,9.0,64,0.00,BKN,OVC,0.00,0.0,WeatherDisplay:10.37,2013-05-23 01:01:00,
2013-05-22 21:06:00,73.8,60.9,29.68,WSW,243,5.6,10.0,64,0.00,BKN,OVC,0.00,0.0,WeatherDisplay:10.37,2013-05-23 01:06:00,
2013-05-22 21:11:00,73.7,60.8,29.68,SW,233,2.2,9.2,64,0.00,BKN,OVC,0.00,0.0,WeatherDisplay:10.37,2013-05-23 01:11:00,
2013-05-22 21:16:00,73.7,60.8,29.68,SSW,201,4.1,10.4,64,0.00,BKN,OVC,0.00,0.0,WeatherDisplay:10.37,2013-05-23 01:16:00,
2013-05-22 21:21:00,73.6,60.7,29.68,SW,236,7.3,13.0,64,0.00,BKN,OVC,0.00,0.0,WeatherDisplay:10.37,2013-05-23 01:21:00,
2013-05-22 21:26:00,73.7,60.8,29.69,SW,233,3.8,6.0,64,0.00,BKN,OVC,0.00,0.0,WeatherDisplay:10.37,2013-05-23 01:26:00,
2013-05-22 21:31:00,73.7,62.5,29.72,WSW,242,9.8,18.4,68,0.04,RA,OVC,0.06,0.0,WeatherDisplay:10.37,2013-05-23 01:31:00,
2013-05-22 21:36:00,72.2,62.7,29.69,SW,216,4.0,24.2,72,0.19,RA,OVC,0.19,0.0,WeatherDisplay:10.37,2013-05-23 01:36:00,
2013-05-22 21:41:00,70.9,62.6,29.69,WNW,282,4.6,8.1,75,0.19,RA,OVC,0.19,0.0,WeatherDisplay:10.37,2013-05-23 01:41:00,
2013-05-22 21:46:00,70.1,62.6,29.69,West,281,0.2,1.2,77,0.19,BKN,OVC,0.19,0.0,WeatherDisplay:10.37,2013-05-23 01:46:00,
2013-05-22 21:51:00,69.4,62.6,29.69,West,281,1.7,3.5,79,0.19,BKN,OVC,0.19,0.0,WeatherDisplay:10.37,2013-05-23 01:51:00,
2013-05-22 21:56:00,68.9,62.8,29.69,West,269,2.0,5.8,81,0.19,BKN,OVC,0.19,0.0,WeatherDisplay:10.37,2013-05-23 01:56:00,
2013-05-22 22:01:00,68.4,62.7,29.69,West,268,1.0,3.5,82,0.19,BKN,OVC,0.19,0.0,WeatherDisplay:10.37,2013-05-23 02:01:00,
2013-05-22 22:06:00,67.9,62.5,29.69,West,264,0.7,4.0,83,0.19,BKN,OVC,0.19,0.0,WeatherDisplay:10.37,2013-05-23 02:06:00,
2013-05-22 22:11:00,67.6,62.6,29.69,West,264,0.0,1.2,84,0.19,BKN,OVC,0.19,0.0,WeatherDisplay:10.37,2013-05-23 02:11:00,
2013-05-22 22:16:00,67.4,62.7,29.69,West,264,0.0,2.3,85,0.19,BKN,OVC,0.19,0.0,WeatherDisplay:10.37,2013-05-23 02:16:00,
2013-05-22 22:21:00,67.3,62.6,29.70,West,264,0.1,1.2,85,0.19,BKN,OVC,0.19,0.0,WeatherDisplay:10.37,2013-05-23 02:21:00,
2013-05-22 22:26:00,67.0,62.3,29.69,West,264,0.0,3.5,85,0.19,BKN,OVC,0.19,0.0,WeatherDisplay:10.37,2013-05-23 02:26:00,
2013-05-22 22:31:00,66.9,62.6,29.69,West,261,3.7,6.0,86,0.15,BKN,OVC,0.19,0.0,WeatherDisplay:10.37,2013-05-23 02:31:00,
2013-05-22 22:36:00,66.7,62.4,29.69,West,261,1.0,3.5,86,0.00,BKN,OVC,0.19,0.0,WeatherDisplay:10.37,2013-05-23 02:36:00,
2013-05-22 22:41:00,66.7,62.4,29.69,West,261,0.1,1.2,86,0.00,BKN,OVC,0.19,0.0,WeatherDisplay:10.37,2013-05-23 02:41:00,
2013-05-22 22:46:00,66.6,62.3,29.69,West,261,0.0,0.0,86,0.00,BKN,OVC,0.19,0.0,WeatherDisplay:10.37,2013-05-23 02:46:00,
2013-05-22 22:51:00,66.5,62.2,29.69,West,261,0.0,0.0,86,0.00,BKN,OVC,0.19,0.0,WeatherDisplay:10.37,2013-05-23 02:51:00,
2013-05-22 22:56:00,66.4,62.1,29.69,West,261,0.0,0.0,86,0.00,BKN,OVC,0.19,0.0,WeatherDisplay:10.37,2013-05-23 02:56:00,
2013-05-22 23:01:00,66.3,62.3,29.70,West,261,1.0,2.3,87,0.00,BKN,OVC,0.19,0.0,WeatherDisplay:10.37,2013-05-23 03:01:00,
2013-05-22 23:06:00,66.1,62.1,29.70,West,261,0.0,0.0,87,0.00,BKN,OVC,0.19,0.0,WeatherDisplay:10.37,2013-05-23 03:06:00,
2013-05-22 23:11:00,66.0,62.0,29.70,West,261,0.0,0.0,87,0.00,BKN,OVC,0.19,0.0,WeatherDisplay:10.37,2013-05-23 03:11:00,
2013-05-22 23:16:00,65.9,61.9,29.70,West,261,0.0,1.2,87,0.00,BKN,OVC,0.19,0.0,WeatherDisplay:10.37,2013-05-23 03:16:00,
2013-05-22 23:21:00,65.9,62.2,29.70,West,261,0.4,2.0,88,0.00,BKN,OVC,0.19,0.0,WeatherDisplay:10.37,2013-05-23 03:21:00,
2013-05-22 23:26:00,65.8,62.1,29.70,West,261,0.1,1.2,88,0.00,BKN,OVC,0.19,0.0,WeatherDisplay:10.37,2013-05-23 03:26:00,
2013-05-22 23:31:00,65.8,62.1,29.70,West,261,0.0,1.2,88,0.00,BKN,OVC,0.19,0.0,WeatherDisplay:10.37,2013-05-23 03:31:00,
2013-05-22 23:36:00,65.8,62.5,29.70,WSW,257,1.2,8.0,89,0.00,BKN,OVC,0.19,0.0,WeatherDisplay:10.37,2013-05-23 03:36:00,
2013-05-22 23:41:00,65.9,62.6,29.71,WSW,255,2.6,5.0,89,0.00,BKN,OVC,0.19,0.0,WeatherDisplay:10.37,2013-05-23 03:41:00,
2013-05-22 23:46:00,65.9,62.6,29.70,WSW,249,2.4,6.9,89,0.00,BKN,OVC,0.19,0.0,WeatherDisplay:10.37,2013-05-23 03:46:00,
2013-05-22 23:51:00,66.1,62.4,29.71,SW,221,0.9,8.1,88,0.00,BKN,OVC,0.19,0.0,WeatherDisplay:10.37,2013-05-23 03:51:00,
2013-05-22 23:56:00,66.2,62.5,29.71,SW,221,4.5,7.0,88,0.00,BKN,OVC,0.19,0.0,WeatherDisplay:10.37,2013-05-23 03:56:00,